Terminal Aerodrome Forecast
Issued by NWS

Home | Current Version | Previous Version | Text Only | Print | Product List | Glossary On
Versions: 1 2 3 4 5 6 7 8 9 10 11 12 13
652
FTUS44 KLZK 220520
TAFLLQ
TAF
KLLQ 220520Z 2206/2306 VRB06KT P6SM -SHRA VCTS SCT020 OVC050CB
      TEMPO 2206/2210 2SM SHRA BR BKN020 OVC035
     FM221000 10008KT 5SM RA BR VCTS BKN015 OVC050CB
     FM221800 28008G15KT 6SM -RA BR BKN020 OVC035=

USA.gov is the U.S. government's official web portal to all federal, state and local government web resources and services.